Terminal Aerodrome Forecast
Issued by NWS

Home | Current Version | Previous Version | Text Only | Print | Product List | Glossary On
Versions: 1 2 3 4 5 6 7 8 9 10 11 12 13
000
FTUS42 KMLB 312330
TAFTIX
TAF
KTIX 312330Z 0100/0124 09008KT P6SM FEW010 SCT250
     FM010300 VRB02KT P6SM SCT250
     FM011400 24004KT P6SM FEW030
     FM011700 08008KT P6SM SCT030
      AMD NOT SKED 0101/0111=

USA.gov is the U.S. government's official web portal to all federal, state and local government web resources and services.